Time;durP1;ratioP1;P1;durP2;ratioP2;P2;SDS_P1;SDS_P2;PMS_P1;PMS_P2;Temp;Humidity;BMP_temperature;BMP_pressure;BME280_temperature;BME280_humidity;BME280_pressure;Samples;Min_cycle;Max_cycle;Signal;HPM_P1;HPM_P2
2022/02/02 00:04:46;;;;;;;25.08;4.68;;;8.20;81.70;;;;;;6186548;22;93868;-70
2022/02/02 00:07:36;;;;;;;21.88;3.75;;;8.20;80.10;;;;;;6188827;22;87870;-71
2022/02/02 00:10:24;;;;;;;19.05;3.55;;;8.20;79.90;;;;;;6161774;22;90951;-71
2022/02/02 00:12:58;;;;;;;17.90;3.05;;;8.20;80.80;;;;;;6188796;22;89383;-71
2022/02/02 00:23:20;;;;;;;17.15;3.20;;;8.30;78.40;;;;;;6162851;22;88801;-71
2022/02/02 00:26:00;;;;;;;16.48;3.58;;;8.30;78.00;;;;;;6188403;22;89347;-71
2022/02/02 00:28:32;;;;;;;16.55;3.45;;;8.40;78.60;;;;;;6188518;22;87957;-71
2022/02/02 00:31:04;;;;;;;14.48;2.80;;;8.40;77.90;;;;;;6162115;22;88199;-70
2022/02/02 00:33:37;;;;;;;20.05;4.72;;;8.30;77.80;;;;;;6161402;22;91438;-71
2022/02/02 00:36:12;;;;;;;15.33;3.27;;;8.30;78.80;;;;;;6161767;22;90389;-70
2022/02/02 00:38:39;;;;;;;15.27;3.40;;;8.30;79.20;;;;;;6161467;22;89407;-71
2022/02/02 00:41:06;;;;;;;18.55;3.72;;;8.30;78.60;;;;;;6136822;22;90862;-70
2022/02/02 00:43:33;;;;;;;20.70;4.90;;;8.30;80.20;;;;;;6161520;22;88751;-70
2022/02/02 00:46:22;;;;;;;16.63;3.10;;;8.20;79.50;;;;;;6161861;22;90891;-71
2022/02/02 00:48:52;;;;;;;19.13;3.95;;;8.20;79.20;;;;;;6161429;22;88726;-71
2022/02/02 00:51:23;;;;;;;19.83;4.13;;;8.20;80.40;;;;;;6188604;22;88393;-71
2022/02/02 00:53:50;;;;;;;29.77;5.03;;;8.20;80.30;;;;;;6188240;22;88756;-70
2022/02/02 00:56:17;;;;;;;21.63;3.75;;;8.20;81.00;;;;;;6161390;22;91205;-71
2022/02/02 00:58:44;;;;;;;9.95;3.22;;;8.10;80.70;;;;;;6188171;22;87952;-71
2022/02/02 01:01:11;;;;;;;16.50;3.90;;;8.20;81.00;;;;;;6161519;22;90933;-70
2022/02/02 01:03:38;;;;;;;18.08;4.15;;;8.20;80.90;;;;;;6136544;22;88573;-71
2022/02/02 01:06:09;;;;;;;21.42;3.80;;;8.20;81.10;;;;;;6162308;22;88639;-70
2022/02/02 01:19:25;;;;;;;16.10;3.58;;;8.30;80.70;;;;;;6188091;22;87975;-71
2022/02/02 01:30:03;;;;;;;16.27;3.35;;;8.30;81.70;;;;;;6188231;22;88040;-71
2022/02/02 01:32:30;;;;;;;15.18;3.70;;;8.30;80.10;;;;;;6161627;22;90948;-71
2022/02/02 01:34:57;;;;;;;18.80;3.60;;;8.30;80.00;;;;;;6161418;22;88775;-71
2022/02/02 01:37:26;;;;;;;16.65;3.70;;;8.30;79.70;;;;;;6160994;22;91112;-71
2022/02/02 01:39:59;;;;;;;16.13;3.28;;;8.30;78.90;;;;;;6160409;22;96112;-70
2022/02/02 01:42:34;;;;;;;17.70;4.00;;;8.30;79.20;;;;;;6188281;22;87938;-71
2022/02/02 01:45:10;;;;;;;15.85;3.05;;;8.30;79.50;;;;;;6187912;22;88576;-71
2022/02/02 01:47:47;;;;;;;13.82;3.20;;;8.30;79.20;;;;;;6163520;22;88446;-71
2022/02/02 01:50:20;;;;;;;14.18;3.88;;;8.20;80.80;;;;;;6136359;22;89386;-71
2022/02/02 01:55:38;;;;;;;10.52;3.22;;;8.10;80.80;;;;;;6144268;22;88690;-70
2022/02/02 01:58:25;;;;;;;15.57;3.65;;;8.00;81.00;;;;;;6188418;22;87597;-71
2022/02/02 02:00:52;;;;;;;10.13;2.53;;;8.00;81.10;;;;;;6164985;22;87925;-70
2022/02/02 02:03:19;;;;;;;7.32;2.25;;;7.90;81.40;;;;;;6136112;22;91147;-71
2022/02/02 02:05:46;;;;;;;13.05;2.47;;;7.90;81.00;;;;;;6187272;22;89606;-71
2022/02/02 02:08:14;;;;;;;11.30;2.28;;;7.90;81.80;;;;;;6160814;22;92005;-71
2022/02/02 02:10:41;;;;;;;12.57;2.30;;;8.00;81.50;;;;;;6187661;22;87859;-71
2022/02/02 02:13:14;;;;;;;17.20;2.90;;;8.00;80.70;;;;;;6161396;22;88271;-70
2022/02/02 02:15:43;;;;;;;15.20;2.40;;;8.00;80.90;;;;;;6160834;22;91360;-70
2022/02/02 02:18:10;;;;;;;12.77;2.83;;;7.90;80.90;;;;;;6161093;22;102053;-71
2022/02/02 02:20:39;;;;;;;18.02;3.85;;;7.90;80.90;;;;;;6187970;22;89025;-71
2022/02/02 02:23:06;;;;;;;11.48;2.65;;;7.90;81.50;;;;;;6160878;22;90914;-71
2022/02/02 02:25:39;;;;;;;17.23;2.72;;;7.90;80.80;;;;;;6187692;22;87897;-71
2022/02/02 02:28:38;;;;;;;12.88;2.53;;;7.90;80.30;;;;;;6160834;22;88021;-71
2022/02/02 02:31:01;;;;;;;11.52;2.60;;;7.90;80.30;;;;;;6186698;22;88720;-70
2022/02/02 02:58:00;;;;;;;26.65;4.07;;;7.70;80.90;;;;;;6186935;22;92157;-71
2022/02/02 03:57:28;;;;;;;9.23;2.20;;;7.40;83.10;;;;;;6140586;22;89206;-71
2022/02/02 04:03:15;;;;;;;17.15;4.10;;;7.40;82.30;;;;;;6167829;22;88592;-71
2022/02/02 04:05:46;;;;;;;12.63;2.42;;;7.30;81.70;;;;;;6160895;22;91179;-71
2022/02/02 04:08:27;;;;;;;19.95;4.25;;;7.40;81.50;;;;;;6188522;22;87903;-71
2022/02/02 04:10:55;;;;;;;20.52;3.70;;;7.40;81.90;;;;;;6189173;22;87368;-71
2022/02/02 04:59:25;;;;;;;20.42;3.90;;;7.60;84.40;;;;;;6188054;22;88654;-71
2022/02/02 05:07:22;;;;;;;22.58;3.97;;;7.50;83.70;;;;;;6188205;22;88969;-71
2022/02/02 05:19:06;;;;;;;29.63;5.18;;;7.50;83.40;;;;;;6188404;22;88921;-70
2022/02/02 05:52:55;;;;;;;27.23;4.55;;;7.60;82.20;;;;;;6186477;22;90054;-71
2022/02/02 05:55:22;;;;;;;23.50;4.47;;;7.60;82.60;;;;;;6187744;22;87893;-71
2022/02/02 05:57:50;;;;;;;26.17;5.03;;;7.50;82.20;;;;;;6188493;22;88398;-71
2022/02/02 06:00:17;;;;;;;15.50;3.70;;;7.60;83.40;;;;;;6187048;22;98114;-70
2022/02/02 06:02:48;;;;;;;24.40;3.90;;;7.60;82.20;;;;;;6187497;22;92772;-70
2022/02/02 06:05:15;;;;;;;15.55;3.05;;;7.60;81.90;;;;;;6135367;22;89057;-71
2022/02/02 06:07:43;;;;;;;14.75;3.60;;;7.50;82.30;;;;;;6187923;22;88344;-71
2022/02/02 06:10:14;;;;;;;16.67;3.10;;;7.50;82.70;;;;;;6187888;22;87970;-70
2022/02/02 06:12:43;;;;;;;19.98;3.40;;;7.50;83.70;;;;;;6162100;22;88572;-70
2022/02/02 06:15:15;;;;;;;24.90;5.13;;;7.40;84.10;;;;;;6187421;22;88015;-71
2022/02/02 06:17:48;;;;;;;25.08;5.75;;;7.40;84.30;;;;;;6136875;22;90866;-70
2022/02/02 06:20:16;;;;;;;25.37;4.03;;;7.50;83.90;;;;;;6188848;22;88866;-70
2022/02/02 06:22:50;;;;;;;24.15;4.70;;;7.50;84.20;;;;;;6163055;22;87470;-71
2022/02/02 06:25:23;;;;;;;26.50;4.18;;;7.60;84.00;;;;;;6189040;22;87934;-71
2022/02/02 06:28:03;;;;;;;19.47;3.47;;;7.60;83.90;;;;;;6161918;22;89212;-71
2022/02/02 06:30:31;;;;;;;23.15;4.13;;;7.70;82.90;;;;;;6188433;22;89564;-70
2022/02/02 06:33:07;;;;;;;22.63;4.88;;;7.70;82.90;;;;;;6189244;22;89172;-71
2022/02/02 06:35:35;;;;;;;19.60;3.58;;;7.80;82.60;;;;;;6188995;22;88011;-71
2022/02/02 06:38:03;;;;;;;21.30;4.00;;;7.80;82.30;;;;;;6161975;22;90961;-71
2022/02/02 06:40:33;;;;;;;26.38;4.63;;;7.80;82.30;;;;;;6113226;22;91160;-71
2022/02/02 06:43:04;;;;;;;23.05;4.40;;;7.80;82.40;;;;;;6189122;22;88391;-71
2022/02/02 06:45:32;;;;;;;18.42;3.75;;;7.80;82.20;;;;;;6161777;22;89068;-70
2022/02/02 06:48:00;;;;;;;24.25;4.25;;;7.80;82.50;;;;;;6162151;22;91237;-71
2022/02/02 06:50:34;;;;;;;25.30;4.35;;;7.80;82.90;;;;;;6161405;22;94114;-71
2022/02/02 06:55:59;;;;;;;22.65;3.67;;;7.80;82.80;;;;;;6162941;22;89924;-71
2022/02/02 06:58:49;;;;;;;22.23;4.18;;;7.80;82.50;;;;;;6162278;22;88748;-71
2022/02/02 07:04:21;;;;;;;18.88;3.90;;;7.80;83.10;;;;;;6188999;22;88789;-71
2022/02/02 07:07:06;;;;;;;21.50;4.22;;;7.90;83.10;;;;;;6189181;22;88019;-70
2022/02/02 07:10:07;;;;;;;15.95;3.58;;;7.80;82.50;;;;;;6188666;22;88030;-71
2022/02/02 07:21:45;;;;;;;18.88;3.63;;;7.70;84.50;;;;;;6189054;22;87932;-71
2022/02/02 07:32:19;;;;;;;27.60;4.70;;;7.70;84.00;;;;;;6188964;22;88417;-71
2022/02/02 07:37:35;;;;;;;23.15;4.45;;;7.70;84.20;;;;;;6188583;22;88506;-71
2022/02/02 07:40:10;;;;;;;21.17;3.80;;;7.70;84.20;;;;;;6188285;22;88038;-70
2022/02/02 07:42:45;;;;;;;16.38;4.10;;;7.70;84.60;;;;;;6161991;22;91132;-71
2022/02/02 07:45:13;;;;;;;25.40;4.05;;;7.70;85.00;;;;;;6188577;22;88733;-71
2022/02/02 07:47:49;;;;;;;17.33;4.22;;;7.70;83.90;;;;;;6186728;22;91182;-71
2022/02/02 07:50:16;;;;;;;24.33;3.90;;;7.80;83.30;;;;;;6188318;22;88646;-71
2022/02/02 07:52:45;;;;;;;20.08;3.78;;;7.80;82.20;;;;;;6188322;22;88096;-71
2022/02/02 07:55:13;;;;;;;15.75;3.13;;;7.80;82.70;;;;;;6188223;22;88517;-71
2022/02/02 07:57:44;;;;;;;22.15;3.35;;;7.80;82.10;;;;;;6161268;22;91033;-70
2022/02/02 08:00:19;;;;;;;12.68;2.65;;;7.80;81.30;;;;;;6161849;22;89352;-71
2022/02/02 08:05:18;;;;;;;15.38;3.03;;;7.80;80.40;;;;;;6161464;22;91284;-71
2022/02/02 08:08:01;;;;;;;19.48;3.65;;;7.80;81.00;;;;;;6188681;22;88797;-71
2022/02/02 08:10:29;;;;;;;16.90;3.80;;;7.90;81.80;;;;;;6165638;22;88012;-71
2022/02/02 08:13:01;;;;;;;27.05;4.75;;;7.90;82.20;;;;;;6161858;22;88314;-71
2022/02/02 08:15:32;;;;;;;21.80;4.43;;;7.90;82.80;;;;;;6161587;22;89483;-71
2022/02/02 08:17:59;;;;;;;22.15;4.07;;;7.90;82.90;;;;;;6188666;22;89335;-71
2022/02/02 08:20:26;;;;;;;21.95;4.32;;;8.00;83.20;;;;;;6188714;22;88906;-71
2022/02/02 08:22:54;;;;;;;25.08;4.15;;;8.00;83.60;;;;;;6161818;22;88342;-71
2022/02/02 08:27:53;;;;;;;21.90;4.45;;;8.20;84.30;;;;;;6188391;22;88648;-71
2022/02/02 08:30:23;;;;;;;24.67;4.60;;;8.30;84.20;;;;;;6160814;22;105835;-71
2022/02/02 08:32:50;;;;;;;31.17;5.22;;;8.30;84.00;;;;;;6188772;22;89344;-71
2022/02/02 08:35:22;;;;;;;24.27;5.07;;;8.30;83.60;;;;;;6188405;22;91096;-71
2022/02/02 08:37:57;;;;;;;30.33;4.82;;;8.30;83.60;;;;;;6188371;22;88505;-71
2022/02/02 08:42:52;;;;;;;28.40;4.55;;;8.40;83.20;;;;;;6161475;22;88254;-71
2022/02/02 08:45:27;;;;;;;27.17;4.38;;;8.50;82.80;;;;;;6136485;22;91452;-71
2022/02/02 08:48:00;;;;;;;22.25;3.90;;;8.50;82.30;;;;;;6161243;22;91324;-71
2022/02/02 08:50:46;;;;;;;28.98;5.05;;;8.60;82.20;;;;;;6188693;22;88106;-71
2022/02/02 08:53:32;;;;;;;29.60;4.45;;;8.70;82.10;;;;;;6188550;22;88275;-71
2022/02/02 09:00:56;;;;;;;20.73;3.88;;;8.90;79.70;;;;;;6187839;22;93327;-71
2022/02/02 09:06:10;;;;;;;19.73;3.67;;;9.00;80.40;;;;;;6187949;22;88707;-71
2022/02/02 09:08:37;;;;;;;26.55;3.95;;;9.00;79.90;;;;;;6188322;22;89020;-71
2022/02/02 09:35:23;;;;;;;20.15;4.18;;;9.50;78.40;;;;;;6188211;22;88313;-71
2022/02/02 09:37:50;;;;;;;25.75;4.22;;;9.60;78.50;;;;;;6135855;22;91375;-71
2022/02/02 09:43:00;;;;;;;22.80;3.78;;;9.70;78.30;;;;;;6161099;22;89318;-71
2022/02/02 09:45:32;;;;;;;21.67;4.40;;;9.70;78.40;;;;;;6161263;22;90960;-71
2022/02/02 09:48:08;;;;;;;26.38;4.03;;;9.80;78.50;;;;;;6187317;22;98910;-71
2022/02/02 09:50:43;;;;;;;24.52;4.68;;;9.90;78.40;;;;;;6188653;22;88509;-71
2022/02/02 09:53:18;;;;;;;18.08;3.53;;;9.90;76.80;;;;;;6189380;22;87965;-72
2022/02/02 10:04:16;;;;;;;21.40;3.60;;;10.00;77.00;;;;;;6162175;22;88699;-71
2022/02/02 10:14:16;;;;;;;17.98;3.67;;;10.10;76.40;;;;;;6188988;22;87883;-71
2022/02/02 10:16:46;;;;;;;16.30;3.05;;;10.00;77.00;;;;;;6137981;22;89318;-71
2022/02/02 10:19:24;;;;;;;19.10;4.43;;;10.00;77.20;;;;;;6161884;22;91205;-71
2022/02/02 10:21:52;;;;;;;17.48;3.13;;;10.00;76.70;;;;;;6188797;22;88562;-71
2022/02/02 10:24:43;;;;;;;14.80;3.40;;;10.00;76.70;;;;;;6161792;22;89517;-71
2022/02/02 10:27:27;;;;;;;17.83;2.75;;;10.00;76.40;;;;;;6162346;22;88225;-71
2022/02/02 10:30:14;;;;;;;12.02;2.55;;;10.10;76.20;;;;;;6162024;22;91708;-71
2022/02/02 10:32:47;;;;;;;12.73;2.60;;;10.00;75.90;;;;;;6189088;22;88636;-71
2022/02/02 10:35:40;;;;;;;18.83;3.13;;;9.90;76.30;;;;;;6189532;22;88416;-71
2022/02/02 10:38:22;;;;;;;10.38;2.85;;;9.80;76.70;;;;;;6185884;22;88251;-72
2022/02/02 10:41:15;;;;;;;15.98;2.72;;;9.60;78.00;;;;;;6188659;22;88597;-72
2022/02/02 10:43:51;;;;;;;18.42;3.55;;;9.70;78.50;;;;;;6162651;22;91073;-71
2022/02/02 10:46:28;;;;;;;16.75;3.65;;;9.70;79.00;;;;;;6189205;22;87879;-71
2022/02/02 10:49:08;;;;;;;18.08;3.17;;;9.80;79.30;;;;;;6162158;22;88530;-71
2022/02/02 10:51:40;;;;;;;18.98;2.70;;;9.80;78.20;;;;;;6162006;22;89574;-72
2022/02/02 11:00:31;;;;;;;8.05;2.33;;;10.00;77.00;;;;;;6066012;23;88660;-71
2022/02/02 11:08:31;;;;;;;16.67;3.58;;;9.90;76.50;;;;;;6187448;22;89485;-71
2022/02/02 11:10:59;;;;;;;14.43;2.95;;;9.90;76.30;;;;;;6162550;22;88178;-71
2022/02/02 11:13:28;;;;;;;19.45;3.65;;;10.00;77.30;;;;;;6162419;22;88731;-71
2022/02/02 11:15:57;;;;;;;18.70;3.35;;;10.00;77.00;;;;;;6188930;22;88499;-72
2022/02/02 11:18:28;;;;;;;11.75;2.53;;;10.00;76.70;;;;;;6188187;22;94105;-71
2022/02/02 11:21:09;;;;;;;10.65;2.47;;;10.00;75.40;;;;;;6188835;22;88372;-71
2022/02/02 11:23:50;;;;;;;13.27;2.85;;;10.10;75.80;;;;;;6161868;22;91478;-72
2022/02/02 11:26:36;;;;;;;12.65;2.67;;;10.10;75.60;;;;;;6161825;22;88515;-71
2022/02/02 11:29:04;;;;;;;16.15;2.65;;;10.20;75.90;;;;;;6161570;22;90139;-72
2022/02/02 11:31:31;;;;;;;14.90;2.72;;;10.20;75.30;;;;;;6162503;22;88502;-71
2022/02/02 11:33:59;;;;;;;12.57;2.88;;;10.20;74.50;;;;;;6186860;22;91227;-72
2022/02/02 11:36:34;;;;;;;13.18;3.17;;;10.20;73.80;;;;;;6189098;22;88654;-72
2022/02/02 11:39:06;;;;;;;10.30;1.95;;;10.30;74.90;;;;;;6188251;22;87924;-72
2022/02/02 11:44:17;;;;;;;14.90;2.95;;;10.40;72.00;;;;;;6186403;22;92424;-71
2022/02/02 11:49:45;;;;;;;7.00;1.65;;;10.40;71.30;;;;;;6161912;22;88318;-71
2022/02/02 11:52:32;;;;;;;14.77;3.03;;;10.40;70.00;;;;;;6161293;22;89435;-71
2022/02/02 11:55:00;;;;;;;15.25;3.05;;;10.50;71.00;;;;;;6146538;22;91382;-71
2022/02/02 11:57:51;;;;;;;16.60;2.97;;;10.50;71.90;;;;;;6161652;22;91062;-71
2022/02/02 12:00:29;;;;;;;23.20;3.63;;;10.60;71.80;;;;;;6161817;22;87946;-71
2022/02/02 12:57:22;;;;;;;14.05;3.58;;;11.10;68.70;;;;;;6181981;22;90834;-71
2022/02/02 13:02:19;;;;;;;12.63;2.88;;;11.10;69.10;;;;;;6157175;22;99376;-72
2022/02/02 13:04:55;;;;;;;9.30;2.05;;;11.10;67.30;;;;;;6157729;22;88765;-71
2022/02/02 13:07:27;;;;;;;14.98;2.55;;;11.10;65.90;;;;;;6106910;22;90879;-71
2022/02/02 13:09:55;;;;;;;13.13;2.85;;;11.10;65.90;;;;;;6158053;22;88758;-72
2022/02/02 13:12:22;;;;;;;13.55;2.80;;;11.10;67.10;;;;;;6157696;22;88593;-72
2022/02/02 13:17:51;;;;;;;11.77;2.30;;;11.00;64.50;;;;;;6131272;22;90291;-72
2022/02/02 13:23:28;;;;;;;8.32;1.90;;;10.90;63.80;;;;;;6157993;22;88481;-71
2022/02/02 13:26:04;;;;;;;9.32;1.88;;;10.80;64.00;;;;;;6131198;22;89419;-72
2022/02/02 13:48:27;;;;;;;10.63;1.70;;;10.90;65.50;;;;;;6158336;22;89205;-71
2022/02/02 13:53:50;;;;;;;7.53;1.98;;;10.90;66.90;;;;;;6187914;22;88763;-71
2022/02/02 14:01:42;;;;;;;11.10;2.38;;;10.90;65.20;;;;;;6186020;22;90832;-72
2022/02/02 14:31:26;;;;;;;7.68;1.95;;;10.60;66.20;;;;;;6135090;22;88979;-75
2022/02/02 14:33:59;;;;;;;10.40;2.20;;;10.60;66.10;;;;;;6133780;22;91109;-75
2022/02/02 14:36:30;;;;;;;6.72;1.60;;;10.60;66.50;;;;;;6135400;22;88627;-74
2022/02/02 14:44:20;;;;;;;8.10;1.58;;;10.50;67.00;;;;;;6140178;22;89810;-75
2022/02/02 14:47:13;;;;;;;8.70;1.75;;;10.40;67.10;;;;;;6141173;22;89781;-73
2022/02/02 15:28:22;;;;;;;9.32;1.95;;;11.10;67.00;;;;;;6166082;22;88200;-74
2022/02/02 15:31:01;;;;;;;8.25;1.98;;;11.10;67.40;;;;;;6139472;22;88138;-72
2022/02/02 15:33:29;;;;;;;7.07;1.48;;;11.00;66.80;;;;;;6164468;22;88267;-72
2022/02/02 15:36:15;;;;;;;6.85;1.92;;;10.90;67.70;;;;;;6165045;22;88780;-72
2022/02/02 15:38:44;;;;;;;7.35;1.80;;;10.90;67.90;;;;;;6165549;22;88456;-72
2022/02/02 15:41:19;;;;;;;5.65;2.00;;;10.80;68.30;;;;;;6139482;22;89360;-72
2022/02/02 15:44:44;;;;;;;10.52;2.15;;;10.70;68.90;;;;;;6139403;22;91146;-72
2022/02/02 16:06:10;;;;;;;14.52;12.18;;;10.20;70.90;;;;;;6165453;22;90825;-72
2022/02/02 16:08:27;;;;;;;11.00;7.07;;;10.10;70.90;;;;;;6162470;22;89390;-73
2022/02/02 16:19:02;;;;;;;8.80;4.80;;;9.70;71.90;;;;;;6135634;22;90442;-71
2022/02/02 16:37:55;;;;;;;14.10;4.72;;;9.10;74.20;;;;;;6131476;22;91090;-73
2022/02/02 16:40:30;;;;;;;14.38;4.25;;;9.00;74.30;;;;;;6130938;22;89953;-73
2022/02/02 16:45:30;;;;;;;16.23;4.22;;;8.90;74.70;;;;;;6131664;22;89429;-73
2022/02/02 16:47:57;;;;;;;10.15;3.53;;;8.90;74.90;;;;;;6157928;22;88300;-73
2022/02/02 16:50:29;;;;;;;11.07;2.95;;;8.80;75.10;;;;;;6131746;22;88775;-73
2022/02/02 16:53:01;;;;;;;9.10;2.53;;;8.70;75.30;;;;;;6158075;22;88067;-73
2022/02/02 16:55:39;;;;;;;11.93;2.70;;;8.70;75.60;;;;;;6132864;22;87861;-73
2022/02/02 17:24:08;;;;;;;10.20;2.97;;;8.60;75.90;;;;;;6158631;22;87272;-73
2022/02/02 17:31:33;;;;;;;19.23;5.77;;;7.80;79.60;;;;;;6130807;22;90704;-73
2022/02/02 17:34:26;;;;;;;17.25;4.63;;;7.80;79.90;;;;;;6157134;22;89396;-73
2022/02/02 17:37:07;;;;;;;16.70;4.30;;;7.80;80.20;;;;;;6157381;22;89381;-73
2022/02/02 17:39:45;;;;;;;17.33;4.47;;;7.70;80.80;;;;;;6157708;22;87978;-73
2022/02/02 17:42:38;;;;;;;17.13;4.50;;;7.70;81.10;;;;;;6157696;22;88103;-73
2022/02/02 18:20:34;;;;;;;11.70;2.83;;;7.40;82.70;;;;;;6159245;22;88680;-79
2022/02/02 18:26:05;;;;;;;11.35;2.55;;;7.40;82.50;;;;;;6133570;22;88130;-73
2022/02/02 18:54:31;;;;;;;12.18;2.80;;;7.10;83.30;;;;;;6158035;22;89179;-73
2022/02/02 19:03:08;;;;;;;15.38;4.13;;;7.00;83.30;;;;;;6158323;22;88522;-79
2022/02/02 19:06:07;;;;;;;17.02;4.68;;;6.90;83.50;;;;;;6133366;22;88040;-79
2022/02/02 19:40:36;;;;;;;17.75;4.10;;;6.80;84.50;;;;;;6131521;22;89492;-79
2022/02/02 20:05:16;;;;;;;19.88;3.78;;;6.90;84.50;;;;;;6158390;22;88858;-79
2022/02/02 20:11:06;;;;;;;14.95;3.78;;;7.00;84.50;;;;;;6095925;23;88122;-79
2022/02/02 20:13:36;;;;;;;16.90;3.88;;;7.00;84.40;;;;;;6096007;23;88588;-79
2022/02/02 20:16:04;;;;;;;15.50;3.75;;;7.00;84.30;;;;;;6132469;22;89558;-79
2022/02/02 20:18:36;;;;;;;20.15;4.20;;;7.10;84.10;;;;;;6158278;22;89310;-79
2022/02/02 20:21:08;;;;;;;15.15;3.67;;;7.10;83.90;;;;;;6158219;22;87952;-79
2022/02/02 20:23:48;;;;;;;20.20;4.00;;;7.10;83.70;;;;;;6131441;22;89855;-79
2022/02/02 20:26:19;;;;;;;21.90;4.40;;;7.10;83.60;;;;;;6131133;22;91403;-79
2022/02/02 20:28:46;;;;;;;18.42;5.80;;;7.20;83.60;;;;;;6132637;22;88382;-79
2022/02/02 20:31:14;;;;;;;15.75;4.70;;;7.20;83.50;;;;;;6106554;22;89339;-79
2022/02/02 20:33:41;;;;;;;18.95;4.97;;;7.20;83.50;;;;;;6158790;22;88503;-79
2022/02/02 20:36:12;;;;;;;12.15;3.92;;;7.20;83.30;;;;;;6105414;22;91791;-79
2022/02/02 20:38:39;;;;;;;14.15;4.38;;;7.30;83.30;;;;;;6107596;22;91078;-79
2022/02/02 20:41:07;;;;;;;18.42;4.60;;;7.30;83.30;;;;;;6100442;23;96356;-79
2022/02/02 20:43:45;;;;;;;15.75;4.28;;;7.30;83.00;;;;;;6128123;22;88158;-79
2022/02/02 21:05:52;;;;;;;21.38;4.70;;;7.50;83.10;;;;;;6127754;23;88321;-79
2022/02/02 21:10:26;;;;;;;23.48;5.18;;;7.60;83.20;;;;;;6127742;23;89401;-73
2022/02/02 21:15:39;;;;;;;19.25;5.38;;;7.60;83.50;;;;;;6126452;23;91188;-79
2022/02/02 21:18:13;;;;;;;17.17;5.50;;;7.60;83.50;;;;;;6128076;22;88687;-79
2022/02/02 21:20:48;;;;;;;20.42;4.85;;;7.60;83.50;;;;;;6126497;23;91034;-79
2022/02/02 21:28:36;;;;;;;19.70;4.90;;;7.70;83.60;;;;;;6103965;23;91189;-79
2022/02/02 21:31:04;;;;;;;20.95;4.70;;;7.70;83.80;;;;;;6126290;23;90951;-79
2022/02/02 21:33:35;;;;;;;12.82;4.18;;;7.80;83.60;;;;;;6127388;22;88654;-79
2022/02/02 21:36:03;;;;;;;21.30;5.00;;;7.80;83.30;;;;;;6102471;23;90981;-79
2022/02/02 21:38:41;;;;;;;16.52;4.88;;;7.80;83.30;;;;;;6126232;23;88060;-79
2022/02/02 21:41:15;;;;;;;15.07;4.75;;;7.80;82.90;;;;;;6151249;22;88646;-79
2022/02/02 21:43:42;;;;;;;21.17;4.57;;;7.90;83.00;;;;;;6106606;22;89528;-79
2022/02/02 21:46:10;;;;;;;17.65;4.78;;;7.90;83.20;;;;;;6130786;22;91043;-79
2022/02/02 21:48:40;;;;;;;16.05;4.40;;;7.90;83.00;;;;;;6130493;22;90514;-79
2022/02/02 21:51:09;;;;;;;14.73;4.35;;;8.00;83.00;;;;;;6158313;22;88713;-79
2022/02/02 21:53:36;;;;;;;18.70;4.18;;;8.00;83.20;;;;;;6157526;22;88044;-79
2022/02/02 21:56:04;;;;;;;20.77;5.25;;;8.00;83.40;;;;;;6130673;22;91105;-79
2022/02/02 21:58:31;;;;;;;19.65;5.00;;;8.00;84.10;;;;;;6130253;22;92355;-79
2022/02/02 22:00:58;;;;;;;18.23;5.78;;;8.00;84.80;;;;;;6157725;22;89228;-79
2022/02/02 22:03:25;;;;;;;17.08;5.57;;;8.10;85.00;;;;;;6131044;22;88030;-79
2022/02/02 22:05:52;;;;;;;20.58;5.55;;;8.10;85.60;;;;;;6157827;22;88498;-79
2022/02/02 22:08:19;;;;;;;23.27;6.50;;;8.10;86.30;;;;;;6132330;22;89443;-73
2022/02/02 22:10:47;;;;;;;22.30;6.00;;;8.20;86.60;;;;;;6131205;22;88667;-73
2022/02/02 22:13:16;;;;;;;22.48;6.85;;;8.20;86.80;;;;;;6130379;22;88361;-73
2022/02/02 22:15:51;;;;;;;20.98;7.03;;;8.20;87.40;;;;;;6157931;22;89476;-73
2022/02/02 22:18:19;;;;;;;24.88;6.68;;;8.20;87.80;;;;;;6157707;22;88447;-73
2022/02/02 22:20:46;;;;;;;28.92;7.13;;;8.20;87.80;;;;;;6129966;22;100933;-73
2022/02/02 22:23:13;;;;;;;22.85;8.38;;;8.20;88.10;;;;;;6130104;22;89297;-73
2022/02/02 22:25:41;;;;;;;24.63;7.50;;;8.30;88.30;;;;;;6157137;22;88212;-73
2022/02/02 22:28:08;;;;;;;22.70;6.95;;;8.30;88.60;;;;;;6131311;22;88536;-74
2022/02/02 22:30:35;;;;;;;24.05;8.10;;;8.30;88.60;;;;;;6130766;22;88547;-73
2022/02/02 22:33:02;;;;;;;21.75;7.30;;;8.30;88.80;;;;;;6131164;22;88003;-73
2022/02/02 22:35:29;;;;;;;33.45;8.10;;;8.30;88.90;;;;;;6130604;22;88285;-73
2022/02/02 22:37:56;;;;;;;27.30;9.40;;;8.30;89.20;;;;;;6131002;22;88682;-73
2022/02/02 22:40:26;;;;;;;28.75;8.93;;;8.30;89.30;;;;;;6130349;22;91383;-73
2022/02/02 22:42:54;;;;;;;25.80;9.10;;;8.40;89.40;;;;;;6157433;22;87901;-73
2022/02/02 22:45:21;;;;;;;26.63;9.60;;;8.40;89.40;;;;;;6130430;22;89274;-73
2022/02/02 22:47:49;;;;;;;24.25;8.82;;;8.40;89.50;;;;;;6129351;22;106722;-73
2022/02/02 22:50:20;;;;;;;30.83;9.40;;;8.40;89.60;;;;;;6130125;22;91909;-73
2022/02/02 22:52:51;;;;;;;22.02;8.43;;;8.40;89.60;;;;;;6106576;22;89145;-73
2022/02/02 22:55:19;;;;;;;31.50;9.30;;;8.40;89.60;;;;;;6130628;22;90772;-73
2022/02/02 22:57:48;;;;;;;27.73;9.85;;;8.40;89.70;;;;;;6105313;22;91425;-73
2022/02/02 23:00:18;;;;;;;23.25;8.93;;;8.50;89.70;;;;;;6158420;22;88328;-73
2022/02/02 23:02:57;;;;;;;23.25;9.32;;;8.50;89.70;;;;;;6131683;22;88004;-73
2022/02/02 23:05:34;;;;;;;26.48;10.27;;;8.50;89.70;;;;;;6110098;22;91013;-72
2022/02/02 23:08:04;;;;;;;29.42;11.25;;;8.50;89.90;;;;;;6131472;22;89087;-73
2022/02/02 23:10:31;;;;;;;26.98;11.20;;;8.50;90.00;;;;;;6130168;22;92491;-73
2022/02/02 23:12:59;;;;;;;29.30;10.45;;;8.50;90.00;;;;;;6105942;22;91559;-73
2022/02/02 23:15:34;;;;;;;27.88;9.85;;;8.50;90.10;;;;;;6157036;22;103866;-73
2022/02/02 23:18:12;;;;;;;26.63;11.13;;;8.60;90.10;;;;;;6132365;22;88712;-73
2022/02/02 23:20:41;;;;;;;37.58;13.10;;;8.60;90.20;;;;;;6130673;22;92753;-73
2022/02/02 23:23:08;;;;;;;27.65;12.13;;;8.60;90.50;;;;;;6157705;22;88949;-73
2022/02/02 23:25:36;;;;;;;35.00;13.80;;;8.60;90.40;;;;;;6157359;22;88457;-73
2022/02/02 23:28:04;;;;;;;32.92;14.15;;;8.60;90.50;;;;;;6106373;22;91295;-73
2022/02/02 23:30:33;;;;;;;31.52;14.02;;;8.70;90.50;;;;;;6157580;22;89273;-73
2022/02/02 23:33:01;;;;;;;28.75;13.20;;;8.70;90.60;;;;;;6157678;22;88968;-73
2022/02/02 23:35:29;;;;;;;35.08;14.88;;;8.70;90.60;;;;;;6130649;22;91069;-73
2022/02/02 23:37:56;;;;;;;36.80;14.75;;;8.70;90.70;;;;;;6157375;22;89600;-73
2022/02/02 23:40:24;;;;;;;34.78;14.52;;;8.70;90.80;;;;;;6156633;22;89249;-73
2022/02/02 23:42:51;;;;;;;34.03;15.60;;;8.70;90.80;;;;;;6105719;22;91433;-73
2022/02/02 23:45:22;;;;;;;31.88;14.38;;;8.80;90.80;;;;;;6157496;22;88416;-73
2022/02/02 23:47:52;;;;;;;35.38;16.15;;;8.80;90.80;;;;;;6157262;22;88765;-73
2022/02/02 23:50:21;;;;;;;40.22;16.45;;;8.80;90.80;;;;;;6157595;22;89380;-73
2022/02/02 23:52:54;;;;;;;42.70;16.85;;;8.80;90.80;;;;;;6106337;22;90509;-73
2022/02/02 23:55:32;;;;;;;39.13;16.40;;;8.90;90.80;;;;;;6157893;22;88376;-73
